createdAt,value
2023-05-20T00:02:57.687Z,64.06
2023-05-20T00:06:00.448Z,63.82
2023-05-20T00:09:03.807Z,63.66
2023-05-20T00:12:07.669Z,63.34
2023-05-20T00:15:13.024Z,63.84
2023-05-20T00:18:15.581Z,63.18
2023-05-20T00:21:18.329Z,63.26
2023-05-20T00:24:20.954Z,63.37
2023-05-20T00:27:23.897Z,62.83
2023-05-20T00:30:27.860Z,63.21
2023-05-20T00:33:30.728Z,63.06
2023-05-20T00:36:33.308Z,62.99
2023-05-20T00:39:36.282Z,63.43
2023-05-20T00:42:39.269Z,62.93
2023-05-20T00:45:43.206Z,63.40
2023-05-20T00:48:45.893Z,63.29
2023-05-20T00:51:48.600Z,62.76
2023-05-20T00:54:51.848Z,62.69
2023-05-20T00:57:55.114Z,62.72
2023-05-20T01:00:59.338Z,62.51
2023-05-20T01:04:02.046Z,62.90
2023-05-20T01:07:05.744Z,62.86
2023-05-20T01:10:09.624Z,62.83
2023-05-20T01:13:16.231Z,62.86
2023-05-20T01:16:21.564Z,63.14
2023-05-20T01:19:34.058Z,62.41
2023-05-20T01:22:39.344Z,62.31
2023-05-20T01:25:42.446Z,62.19
2023-05-20T01:28:45.112Z,62.04
2023-05-20T01:31:48.445Z,62.10
2023-05-20T01:34:52.257Z,62.27
2023-05-20T01:37:57.411Z,62.56
2023-05-20T01:41:00.714Z,62.74
2023-05-20T01:44:03.745Z,62.57
2023-05-20T01:47:06.601Z,62.41
2023-05-20T01:50:10.185Z,62.87
2023-05-20T01:53:14.090Z,62.86
2023-05-20T01:56:16.859Z,62.89
2023-05-20T01:59:19.673Z,63.25
2023-05-20T02:02:22.289Z,63.10
2023-05-20T02:05:25.079Z,63.08
2023-05-20T02:08:29.161Z,63.74
2023-05-20T02:11:31.907Z,63.51
2023-05-20T02:14:34.532Z,64.19
2023-05-20T02:17:37.293Z,64.12
2023-05-20T02:20:41.138Z,65.29
2023-05-20T02:23:45.190Z,65.56
2023-05-20T02:26:49.336Z,65.20
2023-05-20T02:29:52.010Z,65.98
2023-05-20T02:32:54.780Z,66.72
2023-05-20T02:35:57.808Z,66.59
2023-05-20T02:39:01.759Z,66.65
2023-05-20T02:42:05.216Z,67.73
2023-05-20T02:45:10.133Z,67.40
2023-05-20T02:48:12.806Z,67.67
2023-05-20T02:51:15.365Z,68.07
2023-05-20T02:54:19.346Z,68.14
2023-05-20T02:57:22.004Z,68.61
2023-05-20T03:00:24.642Z,68.01
2023-05-20T03:03:27.644Z,68.05
2023-05-20T03:06:31.768Z,68.77
2023-05-20T03:09:35.846Z,69.81
2023-05-20T03:12:38.451Z,69.36
2023-05-20T03:15:41.275Z,69.41
2023-05-20T03:18:43.885Z,69.26
2023-05-20T03:21:46.638Z,69.27
2023-05-20T03:24:52.740Z,69.04
2023-05-20T03:27:55.502Z,69.03
2023-05-20T03:30:58.056Z,70.11
2023-05-20T03:34:00.729Z,70.52
2023-05-20T03:37:03.358Z,70.42
2023-05-20T03:40:10.338Z,70.90
2023-05-20T03:43:13.063Z,71.12
2023-05-20T03:46:15.715Z,70.70
2023-05-20T03:49:18.402Z,70.86
2023-05-20T03:52:21.308Z,70.05
2023-05-20T03:55:25.953Z,69.55
2023-05-20T03:58:29.767Z,68.97
2023-05-20T04:01:32.357Z,69.19
2023-05-20T04:04:35.013Z,69.55
2023-05-20T04:07:37.800Z,68.80
2023-05-20T04:10:43.737Z,68.82
2023-05-20T04:13:46.345Z,68.88
2023-05-20T04:16:50.173Z,68.54
2023-05-20T04:19:53.032Z,67.97
2023-05-20T04:22:56.119Z,67.75
2023-05-20T04:26:02.663Z,67.83
2023-05-20T04:29:05.611Z,67.11
2023-05-20T04:32:10.925Z,67.38
2023-05-20T04:35:13.876Z,66.76
2023-05-20T04:38:16.858Z,66.92
2023-05-20T04:41:20.810Z,66.72
2023-05-20T04:44:24.711Z,66.64
2023-05-20T04:47:27.416Z,66.59
2023-05-20T04:50:30.235Z,66.22
2023-05-20T04:53:33.902Z,65.92
2023-05-20T04:56:38.228Z,65.28
2023-05-20T04:59:40.794Z,64.81
2023-05-20T05:02:43.734Z,64.52
2023-05-20T05:05:46.486Z,64.17
2023-05-20T05:08:49.069Z,63.36
2023-05-20T05:11:53.070Z,62.50
2023-05-20T05:14:55.971Z,61.62
2023-05-20T05:17:58.902Z,60.75
2023-05-20T05:21:02.876Z,59.91
2023-05-20T05:24:05.620Z,59.33
2023-05-20T05:27:09.566Z,58.66
2023-05-20T05:30:12.490Z,58.51
2023-05-20T05:33:15.594Z,57.63
2023-05-20T05:36:18.521Z,57.19
2023-05-20T05:39:21.084Z,56.22
2023-05-20T05:42:24.953Z,55.94
2023-05-20T05:45:27.703Z,55.25
2023-05-20T05:48:30.428Z,55.08
2023-05-20T05:51:33.024Z,55.04
2023-05-20T05:54:35.906Z,54.20
2023-05-20T05:57:40.047Z,54.66
2023-05-20T06:00:42.683Z,54.44
2023-05-20T06:03:45.530Z,54.74
2023-05-20T06:06:49.405Z,54.53
2023-05-20T06:09:52.028Z,54.67
2023-05-20T06:12:56.096Z,54.69
2023-05-20T06:15:58.925Z,54.88
2023-05-20T06:19:03.489Z,54.56
2023-05-20T06:22:06.357Z,54.29
2023-05-20T06:25:10.432Z,54.79
2023-05-20T06:28:14.500Z,55.12
2023-05-20T06:31:17.233Z,53.68
2023-05-20T06:34:19.934Z,53.37
2023-05-20T06:37:24.378Z,53.04
2023-05-20T06:40:27.537Z,52.87
2023-05-20T06:43:31.819Z,51.90
2023-05-20T06:46:34.552Z,51.00
2023-05-20T06:49:37.249Z,51.23
2023-05-20T06:52:39.849Z,50.60
2023-05-20T06:55:42.548Z,50.88
2023-05-20T06:58:46.598Z,50.64
2023-05-20T07:01:49.230Z,50.51
2023-05-20T07:04:51.889Z,49.69
2023-05-20T07:07:54.596Z,48.77
2023-05-20T07:10:57.489Z,48.96
2023-05-20T07:14:03.499Z,48.67
2023-05-20T07:17:07.103Z,48.62
2023-05-20T07:20:10.269Z,48.79
2023-05-20T07:23:14.466Z,49.77
2023-05-20T07:26:18.385Z,50.67
2023-05-20T07:29:22.536Z,50.73
2023-05-20T07:32:25.309Z,50.45
2023-05-20T07:35:27.842Z,51.10
2023-05-20T07:38:30.613Z,51.10
2023-05-20T07:41:33.209Z,51.26
2023-05-20T07:44:37.420Z,50.83
2023-05-20T07:47:39.965Z,50.31
2023-05-20T07:50:42.651Z,49.95
2023-05-20T07:53:45.469Z,49.18
2023-05-20T07:56:48.190Z,47.93
2023-05-20T07:59:52.180Z,46.64
2023-05-20T08:02:55.095Z,45.90
2023-05-20T08:05:58.091Z,45.24
2023-05-20T08:09:01.427Z,45.31
2023-05-20T08:12:04.238Z,45.04
2023-05-20T08:15:09.437Z,45.41
2023-05-20T08:18:12.030Z,44.62
2023-05-20T08:21:15.893Z,44.47
2023-05-20T08:24:18.699Z,44.35
2023-05-20T08:27:21.472Z,43.63
2023-05-20T08:30:25.934Z,43.30
2023-05-20T08:33:28.670Z,42.74
2023-05-20T08:36:31.533Z,42.65
2023-05-20T08:39:34.951Z,42.38
2023-05-20T08:42:37.691Z,42.23
2023-05-20T08:45:41.544Z,41.95
2023-05-20T08:48:44.555Z,41.03
2023-05-20T08:51:48.295Z,40.22
2023-05-20T08:54:51.614Z,40.59
2023-05-20T08:57:54.814Z,40.47
2023-05-20T09:00:58.842Z,40.18
2023-05-20T09:04:02.777Z,39.38
2023-05-20T09:07:05.958Z,39.10
2023-05-20T09:10:09.606Z,39.81
2023-05-20T09:13:12.632Z,40.42
2023-05-20T09:16:17.058Z,40.08
2023-05-20T09:19:24.227Z,40.25
2023-05-20T09:22:28.437Z,40.78
2023-05-20T09:25:31.546Z,40.34
2023-05-20T09:28:36.045Z,40.76
2023-05-20T09:31:40.434Z,40.50
2023-05-20T09:34:43.390Z,40.48
2023-05-20T09:37:47.894Z,39.59
2023-05-20T09:40:50.713Z,38.68
2023-05-20T09:43:53.832Z,38.28
2023-05-20T09:46:59.127Z,38.71
2023-05-20T09:50:03.947Z,37.85
2023-05-20T09:53:07.535Z,37.42
2023-05-20T09:56:10.294Z,37.21
2023-05-20T09:59:13.746Z,37.60
2023-05-20T10:02:17.778Z,37.24
2023-05-20T10:05:24.106Z,38.13
2023-05-20T10:08:39.258Z,38.84
2023-05-20T10:11:57.382Z,38.53
2023-05-20T10:15:08.179Z,38.95
2023-05-20T10:18:17.358Z,38.93
2023-05-20T10:21:24.473Z,38.81
2023-05-20T10:24:31.235Z,39.21
2023-05-20T10:27:43.802Z,38.50
2023-05-20T10:30:51.029Z,38.94
2023-05-20T10:33:56.058Z,37.34
2023-05-20T10:36:59.568Z,36.20
2023-05-20T10:40:08.366Z,34.75
2023-05-20T10:43:12.402Z,34.77
2023-05-20T10:46:31.165Z,35.37
2023-05-20T10:49:42.117Z,35.94
2023-05-20T10:52:44.749Z,35.56
2023-05-20T10:55:53.013Z,35.16
2023-05-20T10:58:56.426Z,34.81
2023-05-20T11:01:59.300Z,34.06
2023-05-20T11:05:04.442Z,33.07
2023-05-20T11:08:16.927Z,33.04
2023-05-20T11:11:30.167Z,31.65
2023-05-20T11:14:32.806Z,31.99
2023-05-20T11:17:35.401Z,31.16
2023-05-20T11:20:39.451Z,31.38
2023-05-20T11:23:42.579Z,31.13
2023-05-20T11:26:46.003Z,31.64
2023-05-20T11:29:50.895Z,31.60
2023-05-20T11:33:00.813Z,30.04
2023-05-20T11:36:08.753Z,29.43
2023-05-20T11:39:19.837Z,29.67
2023-05-20T11:42:22.740Z,29.02
2023-05-20T11:45:25.671Z,29.99
2023-05-20T11:48:28.413Z,29.25
2023-05-20T11:51:32.267Z,29.66
2023-05-20T11:54:36.627Z,30.04
2023-05-20T11:57:39.568Z,29.52
2023-05-20T12:00:51.326Z,29.81
2023-05-20T12:03:57.788Z,30.59
2023-05-20T12:07:03.983Z,29.55
2023-05-20T12:10:08.282Z,28.63
2023-05-20T12:13:12.956Z,27.47
2023-05-20T12:16:15.638Z,27.47
2023-05-20T12:19:18.276Z,25.48
2023-05-20T12:22:22.482Z,25.13
2023-05-20T12:25:25.954Z,26.12
2023-05-20T12:28:28.726Z,27.07
2023-05-20T12:31:34.475Z,27.95
2023-05-20T12:34:38.016Z,28.02
2023-05-20T12:37:42.790Z,27.78
2023-05-20T12:40:45.465Z,27.35
2023-05-20T12:43:48.308Z,26.09
2023-05-20T12:46:51.069Z,25.92
2023-05-20T12:49:54.168Z,25.31
2023-05-20T12:52:58.114Z,25.94
2023-05-20T12:56:01.020Z,27.22
2023-05-20T12:59:03.773Z,28.17
2023-05-20T13:02:06.711Z,27.10
2023-05-20T13:05:10.076Z,25.85
2023-05-20T13:08:14.812Z,25.57
2023-05-20T13:11:17.840Z,25.67
2023-05-20T13:14:21.577Z,24.48
2023-05-20T13:17:24.610Z,22.98
2023-05-20T13:20:27.142Z,22.04
2023-05-20T13:23:31.071Z,22.65
2023-05-20T13:26:33.920Z,22.38
2023-05-20T13:29:36.605Z,23.25
2023-05-20T13:32:39.194Z,24.35
2023-05-20T13:35:41.624Z,24.37
2023-05-20T13:38:45.522Z,22.96
2023-05-20T13:41:48.188Z,21.15
2023-05-20T13:44:50.919Z,16.74
2023-05-20T13:47:53.689Z,14.46
2023-05-20T13:50:56.287Z,13.94
2023-05-20T13:54:00.178Z,15.29
2023-05-20T13:57:03.114Z,18.76
2023-05-20T14:00:07.168Z,20.77
2023-05-20T14:03:10.387Z,22.03
2023-05-20T14:06:14.942Z,21.85
2023-05-20T14:09:19.029Z,21.82
2023-05-20T14:12:22.974Z,21.95
2023-05-20T14:15:25.910Z,22.87
2023-05-20T14:18:28.588Z,22.94
2023-05-20T14:21:31.666Z,22.32
2023-05-20T14:24:35.593Z,21.87
2023-05-20T14:27:38.755Z,22.05
2023-05-20T14:30:41.423Z,21.44
2023-05-20T14:33:44.297Z,19.13
2023-05-20T14:36:47.018Z,18.05
2023-05-20T14:39:50.921Z,17.32
2023-05-20T14:42:53.614Z,17.85
2023-05-20T14:45:56.206Z,19.42
2023-05-20T14:48:58.713Z,21.07
2023-05-20T14:52:01.729Z,21.24
2023-05-20T14:55:06.441Z,20.81
2023-05-20T14:58:09.099Z,17.35
2023-05-20T15:01:11.794Z,14.47
2023-05-20T15:04:14.481Z,15.72
2023-05-20T15:07:17.127Z,18.13
2023-05-20T15:10:21.092Z,20.28
2023-05-20T15:13:23.704Z,21.78
2023-05-20T15:16:26.393Z,22.98
2023-05-20T15:19:29.057Z,23.20
2023-05-20T15:22:31.970Z,23.96
2023-05-20T15:25:36.020Z,23.35
2023-05-20T15:28:38.968Z,22.46
2023-05-20T15:31:41.524Z,22.30
2023-05-20T15:34:44.106Z,23.27
2023-05-20T15:37:46.469Z,22.35
2023-05-20T15:40:50.815Z,22.25
2023-05-20T15:43:53.399Z,22.80
2023-05-20T15:46:55.875Z,21.44
2023-05-20T15:49:58.969Z,21.01
2023-05-20T15:53:01.611Z,19.56
2023-05-20T15:56:06.210Z,20.36
2023-05-20T15:59:08.832Z,20.57
2023-05-20T16:02:11.434Z,18.30
2023-05-20T16:05:14.142Z,14.82
2023-05-20T16:08:16.676Z,12.78
2023-05-20T16:11:21.236Z,12.41
2023-05-20T16:14:23.813Z,11.97
2023-05-20T16:17:26.428Z,12.44
2023-05-20T16:20:29.145Z,13.33
2023-05-20T16:23:31.699Z,15.64
2023-05-20T16:26:36.036Z,18.39
2023-05-20T16:29:39.749Z,16.70
2023-05-20T16:32:42.427Z,14.67
2023-05-20T16:35:45.062Z,14.31
2023-05-20T16:38:47.598Z,16.25
2023-05-20T16:41:51.652Z,19.20
2023-05-20T16:44:54.243Z,21.51
2023-05-20T16:47:57.247Z,22.71
2023-05-20T16:50:59.886Z,24.36
2023-05-20T16:54:02.461Z,25.44
2023-05-20T16:57:07.635Z,26.93
2023-05-20T17:00:11.566Z,27.75
2023-05-20T17:03:14.257Z,29.30
2023-05-20T17:06:17.566Z,29.81
2023-05-20T17:09:20.166Z,30.52
2023-05-20T17:12:23.867Z,30.32
2023-05-20T17:15:26.734Z,31.20
2023-05-20T17:18:29.257Z,31.81
2023-05-20T17:21:31.863Z,32.72
2023-05-20T17:24:35.731Z,33.36
2023-05-20T17:27:39.621Z,33.48
2023-05-20T17:30:42.144Z,34.70
2023-05-20T17:33:44.832Z,34.93
2023-05-20T17:36:47.458Z,36.18
2023-05-20T17:39:49.970Z,36.36
2023-05-20T17:42:53.867Z,36.61
2023-05-20T17:45:56.481Z,37.01
2023-05-20T17:48:59.086Z,37.72
2023-05-20T17:52:01.984Z,38.01
2023-05-20T17:55:04.773Z,38.84
2023-05-20T17:58:08.685Z,39.30
2023-05-20T18:01:11.300Z,39.76
2023-05-20T18:04:13.876Z,40.61
2023-05-20T18:07:17.642Z,40.59
2023-05-20T18:10:20.229Z,41.14
2023-05-20T18:13:24.160Z,41.39
2023-05-20T18:16:27.386Z,42.13
2023-05-20T18:19:30.168Z,42.22
2023-05-20T18:22:33.002Z,42.17
2023-05-20T18:25:35.561Z,42.73
2023-05-20T18:28:39.461Z,42.66
2023-05-20T18:31:43.519Z,42.93
2023-05-20T18:34:46.722Z,43.17
2023-05-20T18:37:49.276Z,43.11
2023-05-20T18:40:51.903Z,43.55
2023-05-20T18:43:56.172Z,44.37
2023-05-20T18:46:58.687Z,44.75
2023-05-20T18:50:01.632Z,45.16
2023-05-20T18:53:04.287Z,45.58
2023-05-20T18:56:07.492Z,45.88
2023-05-20T18:59:11.420Z,46.06
2023-05-20T19:02:15.215Z,46.52
2023-05-20T19:05:20.388Z,47.10
2023-05-20T19:08:23.289Z,47.27
2023-05-20T19:11:25.913Z,47.21
2023-05-20T19:14:29.803Z,47.37
2023-05-20T19:17:32.444Z,47.52
2023-05-20T19:20:35.158Z,47.76
2023-05-20T19:23:37.724Z,48.12
2023-05-20T19:26:40.645Z,48.99
2023-05-20T19:29:44.477Z,49.51
2023-05-20T19:32:47.072Z,50.16
2023-05-20T19:35:49.624Z,50.34
2023-05-20T19:38:52.245Z,50.83
2023-05-20T19:41:54.940Z,51.19
2023-05-20T19:44:58.824Z,51.76
2023-05-20T19:48:01.609Z,51.73
2023-05-20T19:51:04.526Z,52.50
2023-05-20T19:54:07.236Z,53.00
2023-05-20T19:57:09.935Z,53.31
2023-05-20T20:00:15.392Z,53.39
2023-05-20T20:03:18.052Z,53.75
2023-05-20T20:06:21.244Z,54.05
2023-05-20T20:09:23.694Z,54.60
2023-05-20T20:12:26.498Z,54.88
2023-05-20T20:15:31.674Z,54.56
2023-05-20T20:18:34.260Z,54.99
2023-05-20T20:21:36.789Z,55.41
2023-05-20T20:24:39.321Z,55.85
2023-05-20T20:27:43.839Z,56.49
2023-05-20T20:30:47.719Z,56.70
2023-05-20T20:33:50.574Z,57.27
2023-05-20T20:36:54.703Z,57.62
2023-05-20T20:39:57.280Z,57.70
2023-05-20T20:43:00.845Z,57.88
2023-05-20T20:46:06.223Z,58.39
2023-05-20T20:49:08.813Z,58.80
2023-05-20T20:52:12.372Z,58.89
2023-05-20T20:55:15.060Z,59.24
2023-05-20T20:58:17.703Z,59.38
2023-05-20T21:01:21.624Z,59.65
2023-05-20T21:04:25.185Z,60.24
2023-05-20T21:07:27.763Z,59.89
2023-05-20T21:10:30.502Z,60.14
2023-05-20T21:13:33.077Z,60.57
2023-05-20T21:16:36.988Z,60.53
2023-05-20T21:19:39.596Z,61.12
2023-05-20T21:22:42.102Z,61.09
2023-05-20T21:25:44.801Z,61.33
2023-05-20T21:28:47.311Z,60.99
2023-05-20T21:31:51.169Z,61.19
2023-05-20T21:34:54.038Z,61.58
2023-05-20T21:37:57.510Z,61.69
2023-05-20T21:41:01.449Z,61.89
2023-05-20T21:44:04.251Z,62.35
2023-05-20T21:47:08.400Z,62.53
2023-05-20T21:50:12.176Z,62.68
2023-05-20T21:53:14.821Z,62.84
2023-05-20T21:56:17.442Z,63.16
2023-05-20T21:59:19.989Z,63.23
2023-05-20T22:02:23.968Z,63.07
2023-05-20T22:05:27.444Z,63.18
2023-05-20T22:08:30.783Z,63.09
2023-05-20T22:11:33.682Z,63.30
2023-05-20T22:14:36.211Z,63.36
2023-05-20T22:17:40.590Z,63.30
2023-05-20T22:20:43.298Z,63.04
2023-05-20T22:23:45.814Z,63.01
2023-05-20T22:26:48.369Z,63.01
2023-05-20T22:29:50.909Z,62.98
2023-05-20T22:32:54.953Z,63.17
2023-05-20T22:36:00.865Z,63.01
2023-05-20T22:39:04.861Z,62.60
2023-05-20T22:42:07.485Z,62.40
2023-05-20T22:45:11.249Z,63.12
2023-05-20T22:48:15.282Z,63.19
2023-05-20T22:51:18.555Z,63.33
2023-05-20T22:54:21.125Z,63.39
2023-05-20T22:57:24.827Z,63.42
2023-05-20T23:00:27.674Z,63.50
2023-05-20T23:03:31.519Z,63.95
2023-05-20T23:06:38.010Z,63.79
2023-05-20T23:09:40.592Z,64.16
2023-05-20T23:12:43.141Z,64.27
2023-05-20T23:15:48.069Z,64.41
2023-05-20T23:18:52.136Z,64.26
2023-05-20T23:21:54.684Z,64.25
2023-05-20T23:24:57.577Z,64.86
2023-05-20T23:28:00.202Z,64.83
2023-05-20T23:31:02.728Z,64.77
2023-05-20T23:34:07.278Z,64.61
2023-05-20T23:37:10.050Z,64.96
2023-05-20T23:40:13.161Z,65.20
2023-05-20T23:43:15.849Z,65.25
2023-05-20T23:46:19.138Z,65.78
2023-05-20T23:49:26.980Z,65.64
2023-05-20T23:52:29.540Z,65.85
2023-05-20T23:55:32.121Z,66.32
2023-05-20T23:58:34.771Z,66.42
